sensor_id;sensor_type;location;lat;lon;timestamp;P1;durP1;ratioP1;P2;durP2;ratioP2
15077;SDS011;7638;49.760;8.646;2023-09-18T00:02:24;2.80;;;1.80;;
15077;SDS011;7638;49.760;8.646;2023-09-18T00:04:50;3.53;;;1.80;;
15077;SDS011;7638;49.760;8.646;2023-09-18T00:07:16;4.13;;;1.97;;
15077;SDS011;7638;49.760;8.646;2023-09-18T00:09:42;2.30;;;1.43;;
15077;SDS011;7638;49.760;8.646;2023-09-18T00:12:08;3.30;;;1.87;;
15077;SDS011;7638;49.760;8.646;2023-09-18T00:14:34;3.87;;;2.17;;
15077;SDS011;7638;49.760;8.646;2023-09-18T00:17:00;5.83;;;2.37;;
15077;SDS011;7638;49.760;8.646;2023-09-18T00:19:26;5.00;;;2.53;;
15077;SDS011;7638;49.760;8.646;2023-09-18T00:21:52;5.83;;;2.33;;
15077;SDS011;7638;49.760;8.646;2023-09-18T00:24:19;6.67;;;2.17;;
15077;SDS011;7638;49.760;8.646;2023-09-18T00:26:45;5.20;;;2.20;;
15077;SDS011;7638;49.760;8.646;2023-09-18T00:29:13;5.13;;;2.10;;
15077;SDS011;7638;49.760;8.646;2023-09-18T00:31:39;3.37;;;2.20;;
15077;SDS011;7638;49.760;8.646;2023-09-18T00:34:05;5.27;;;1.77;;
15077;SDS011;7638;49.760;8.646;2023-09-18T00:36:31;7.97;;;2.40;;
15077;SDS011;7638;49.760;8.646;2023-09-18T00:38:57;5.20;;;2.20;;
15077;SDS011;7638;49.760;8.646;2023-09-18T00:41:23;4.13;;;2.20;;
15077;SDS011;7638;49.760;8.646;2023-09-18T00:43:49;1.90;;;1.70;;
15077;SDS011;7638;49.760;8.646;2023-09-18T00:46:14;2.70;;;1.80;;
15077;SDS011;7638;49.760;8.646;2023-09-18T00:48:40;3.97;;;2.00;;
15077;SDS011;7638;49.760;8.646;2023-09-18T00:51:08;6.73;;;1.80;;
15077;SDS011;7638;49.760;8.646;2023-09-18T00:53:34;2.03;;;1.73;;
15077;SDS011;7638;49.760;8.646;2023-09-18T00:56:00;4.93;;;1.60;;
15077;SDS011;7638;49.760;8.646;2023-09-18T00:58:29;5.00;;;2.30;;
15077;SDS011;7638;49.760;8.646;2023-09-18T01:00:55;7.17;;;2.43;;
15077;SDS011;7638;49.760;8.646;2023-09-18T01:03:21;9.57;;;2.27;;
15077;SDS011;7638;49.760;8.646;2023-09-18T01:05:50;4.47;;;1.90;;
15077;SDS011;7638;49.760;8.646;2023-09-18T01:08:16;4.20;;;2.87;;
15077;SDS011;7638;49.760;8.646;2023-09-18T01:11:04;2.17;;;1.97;;
15077;SDS011;7638;49.760;8.646;2023-09-18T01:13:30;5.80;;;2.60;;
15077;SDS011;7638;49.760;8.646;2023-09-18T01:16:02;3.17;;;1.90;;
15077;SDS011;7638;49.760;8.646;2023-09-18T01:18:30;4.17;;;2.70;;
15077;SDS011;7638;49.760;8.646;2023-09-18T01:20:56;3.70;;;2.57;;
15077;SDS011;7638;49.760;8.646;2023-09-18T01:23:22;3.93;;;3.00;;
15077;SDS011;7638;49.760;8.646;2023-09-18T01:25:48;5.70;;;2.40;;
15077;SDS011;7638;49.760;8.646;2023-09-18T01:28:14;6.87;;;2.60;;
15077;SDS011;7638;49.760;8.646;2023-09-18T01:30:41;3.03;;;2.30;;
15077;SDS011;7638;49.760;8.646;2023-09-18T01:33:08;4.07;;;2.60;;
15077;SDS011;7638;49.760;8.646;2023-09-18T01:35:34;5.47;;;2.37;;
15077;SDS011;7638;49.760;8.646;2023-09-18T01:38:01;2.90;;;2.10;;
15077;SDS011;7638;49.760;8.646;2023-09-18T01:40:28;4.37;;;2.40;;
15077;SDS011;7638;49.760;8.646;2023-09-18T01:42:54;4.50;;;2.50;;
15077;SDS011;7638;49.760;8.646;2023-09-18T01:45:20;4.10;;;2.33;;
15077;SDS011;7638;49.760;8.646;2023-09-18T01:47:46;4.17;;;2.60;;
15077;SDS011;7638;49.760;8.646;2023-09-18T01:50:12;3.43;;;2.40;;
15077;SDS011;7638;49.760;8.646;2023-09-18T01:52:38;8.10;;;2.93;;
15077;SDS011;7638;49.760;8.646;2023-09-18T01:55:04;8.10;;;2.70;;
15077;SDS011;7638;49.760;8.646;2023-09-18T01:57:31;3.87;;;2.90;;
15077;SDS011;7638;49.760;8.646;2023-09-18T01:59:57;4.40;;;2.80;;
15077;SDS011;7638;49.760;8.646;2023-09-18T02:02:27;4.43;;;3.03;;
15077;SDS011;7638;49.760;8.646;2023-09-18T02:04:54;5.03;;;3.00;;
15077;SDS011;7638;49.760;8.646;2023-09-18T02:07:20;3.60;;;2.60;;
15077;SDS011;7638;49.760;8.646;2023-09-18T02:09:46;6.77;;;2.90;;
15077;SDS011;7638;49.760;8.646;2023-09-18T02:12:12;4.90;;;2.73;;
15077;SDS011;7638;49.760;8.646;2023-09-18T02:14:42;6.93;;;2.97;;
15077;SDS011;7638;49.760;8.646;2023-09-18T02:17:08;6.37;;;3.03;;
15077;SDS011;7638;49.760;8.646;2023-09-18T02:19:34;6.90;;;3.33;;
15077;SDS011;7638;49.760;8.646;2023-09-18T02:22:00;7.83;;;3.10;;
15077;SDS011;7638;49.760;8.646;2023-09-18T02:24:27;6.73;;;2.93;;
15077;SDS011;7638;49.760;8.646;2023-09-18T02:26:53;4.97;;;2.73;;
15077;SDS011;7638;49.760;8.646;2023-09-18T02:29:19;6.00;;;2.47;;
15077;SDS011;7638;49.760;8.646;2023-09-18T02:31:45;8.97;;;3.10;;
15077;SDS011;7638;49.760;8.646;2023-09-18T02:34:11;4.40;;;2.40;;
15077;SDS011;7638;49.760;8.646;2023-09-18T02:36:37;4.47;;;2.20;;
15077;SDS011;7638;49.760;8.646;2023-09-18T02:39:03;6.33;;;2.30;;
15077;SDS011;7638;49.760;8.646;2023-09-18T02:41:29;5.83;;;2.47;;
15077;SDS011;7638;49.760;8.646;2023-09-18T02:43:55;5.20;;;2.67;;
15077;SDS011;7638;49.760;8.646;2023-09-18T02:46:21;9.63;;;2.83;;
15077;SDS011;7638;49.760;8.646;2023-09-18T02:48:47;5.87;;;2.77;;
15077;SDS011;7638;49.760;8.646;2023-09-18T02:51:13;4.13;;;2.67;;
15077;SDS011;7638;49.760;8.646;2023-09-18T02:53:39;7.50;;;2.43;;
15077;SDS011;7638;49.760;8.646;2023-09-18T02:56:06;6.60;;;2.87;;
15077;SDS011;7638;49.760;8.646;2023-09-18T02:58:32;4.53;;;2.53;;
15077;SDS011;7638;49.760;8.646;2023-09-18T03:03:50;8.27;;;2.53;;
15077;SDS011;7638;49.760;8.646;2023-09-18T03:06:16;3.57;;;2.37;;
15077;SDS011;7638;49.760;8.646;2023-09-18T03:08:42;8.87;;;2.70;;
15077;SDS011;7638;49.760;8.646;2023-09-18T03:11:12;5.37;;;2.00;;
15077;SDS011;7638;49.760;8.646;2023-09-18T03:13:47;6.87;;;3.03;;
15077;SDS011;7638;49.760;8.646;2023-09-18T03:16:13;10.80;;;3.10;;
15077;SDS011;7638;49.760;8.646;2023-09-18T03:18:39;8.70;;;2.37;;
15077;SDS011;7638;49.760;8.646;2023-09-18T03:21:06;7.17;;;2.97;;
15077;SDS011;7638;49.760;8.646;2023-09-18T03:23:36;5.87;;;3.13;;
15077;SDS011;7638;49.760;8.646;2023-09-18T03:26:02;5.17;;;2.73;;
15077;SDS011;7638;49.760;8.646;2023-09-18T03:28:28;4.70;;;2.57;;
15077;SDS011;7638;49.760;8.646;2023-09-18T03:30:54;11.37;;;2.30;;
15077;SDS011;7638;49.760;8.646;2023-09-18T03:33:23;3.60;;;2.33;;
15077;SDS011;7638;49.760;8.646;2023-09-18T03:35:50;5.73;;;2.40;;
15077;SDS011;7638;49.760;8.646;2023-09-18T03:38:16;3.70;;;2.30;;
15077;SDS011;7638;49.760;8.646;2023-09-18T03:40:46;7.80;;;2.47;;
15077;SDS011;7638;49.760;8.646;2023-09-18T03:43:12;10.77;;;2.40;;
15077;SDS011;7638;49.760;8.646;2023-09-18T03:45:38;6.13;;;2.60;;
15077;SDS011;7638;49.760;8.646;2023-09-18T03:48:05;5.73;;;2.37;;
15077;SDS011;7638;49.760;8.646;2023-09-18T03:50:31;10.20;;;2.60;;
15077;SDS011;7638;49.760;8.646;2023-09-18T03:52:57;6.47;;;2.53;;
15077;SDS011;7638;49.760;8.646;2023-09-18T03:55:24;5.70;;;2.57;;
15077;SDS011;7638;49.760;8.646;2023-09-18T03:57:51;6.30;;;2.30;;
15077;SDS011;7638;49.760;8.646;2023-09-18T04:00:17;3.40;;;2.10;;
15077;SDS011;7638;49.760;8.646;2023-09-18T04:02:51;8.30;;;2.37;;
15077;SDS011;7638;49.760;8.646;2023-09-18T04:05:17;6.97;;;2.57;;
15077;SDS011;7638;49.760;8.646;2023-09-18T04:07:43;5.70;;;2.67;;
15077;SDS011;7638;49.760;8.646;2023-09-18T04:10:12;6.97;;;2.47;;
15077;SDS011;7638;49.760;8.646;2023-09-18T04:12:48;4.93;;;2.00;;
15077;SDS011;7638;49.760;8.646;2023-09-18T04:15:16;5.83;;;2.40;;
15077;SDS011;7638;49.760;8.646;2023-09-18T04:17:43;5.90;;;2.20;;
15077;SDS011;7638;49.760;8.646;2023-09-18T04:20:09;11.17;;;2.00;;
15077;SDS011;7638;49.760;8.646;2023-09-18T04:22:41;3.83;;;1.97;;
15077;SDS011;7638;49.760;8.646;2023-09-18T04:25:08;10.17;;;2.53;;
15077;SDS011;7638;49.760;8.646;2023-09-18T04:27:34;5.30;;;1.97;;
15077;SDS011;7638;49.760;8.646;2023-09-18T04:30:00;6.57;;;2.40;;
15077;SDS011;7638;49.760;8.646;2023-09-18T04:32:27;6.00;;;3.10;;
15077;SDS011;7638;49.760;8.646;2023-09-18T04:34:54;9.70;;;2.40;;
15077;SDS011;7638;49.760;8.646;2023-09-18T04:37:20;9.60;;;2.27;;
15077;SDS011;7638;49.760;8.646;2023-09-18T04:39:46;5.13;;;2.00;;
15077;SDS011;7638;49.760;8.646;2023-09-18T04:42:12;12.47;;;2.73;;
15077;SDS011;7638;49.760;8.646;2023-09-18T04:44:41;4.87;;;2.30;;
15077;SDS011;7638;49.760;8.646;2023-09-18T04:47:08;5.57;;;2.37;;
15077;SDS011;7638;49.760;8.646;2023-09-18T04:49:34;12.43;;;2.53;;
15077;SDS011;7638;49.760;8.646;2023-09-18T04:52:00;9.73;;;2.70;;
15077;SDS011;7638;49.760;8.646;2023-09-18T04:54:26;7.90;;;2.40;;
15077;SDS011;7638;49.760;8.646;2023-09-18T04:56:52;6.80;;;2.93;;
15077;SDS011;7638;49.760;8.646;2023-09-18T04:59:19;8.20;;;2.53;;
15077;SDS011;7638;49.760;8.646;2023-09-18T05:01:45;10.23;;;2.47;;
15077;SDS011;7638;49.760;8.646;2023-09-18T05:04:11;12.50;;;2.67;;
15077;SDS011;7638;49.760;8.646;2023-09-18T05:06:37;11.33;;;2.97;;
15077;SDS011;7638;49.760;8.646;2023-09-18T05:09:04;11.93;;;2.63;;
15077;SDS011;7638;49.760;8.646;2023-09-18T05:11:30;6.03;;;2.47;;
15077;SDS011;7638;49.760;8.646;2023-09-18T05:13:56;6.23;;;2.50;;
15077;SDS011;7638;49.760;8.646;2023-09-18T05:16:22;10.90;;;2.67;;
15077;SDS011;7638;49.760;8.646;2023-09-18T05:18:48;12.13;;;3.13;;
15077;SDS011;7638;49.760;8.646;2023-09-18T05:21:14;15.93;;;2.93;;
15077;SDS011;7638;49.760;8.646;2023-09-18T05:23:41;8.40;;;2.73;;
15077;SDS011;7638;49.760;8.646;2023-09-18T05:26:07;5.63;;;2.33;;
15077;SDS011;7638;49.760;8.646;2023-09-18T05:28:33;11.00;;;2.70;;
15077;SDS011;7638;49.760;8.646;2023-09-18T05:30:59;8.33;;;2.20;;
15077;SDS011;7638;49.760;8.646;2023-09-18T05:33:25;5.80;;;2.00;;
15077;SDS011;7638;49.760;8.646;2023-09-18T05:35:55;8.30;;;2.60;;
15077;SDS011;7638;49.760;8.646;2023-09-18T05:38:21;5.87;;;2.23;;
15077;SDS011;7638;49.760;8.646;2023-09-18T05:40:47;6.63;;;2.87;;
15077;SDS011;7638;49.760;8.646;2023-09-18T05:43:16;7.93;;;2.13;;
15077;SDS011;7638;49.760;8.646;2023-09-18T05:45:45;12.57;;;2.67;;
15077;SDS011;7638;49.760;8.646;2023-09-18T05:48:11;4.57;;;2.60;;
15077;SDS011;7638;49.760;8.646;2023-09-18T05:50:38;5.17;;;2.40;;
15077;SDS011;7638;49.760;8.646;2023-09-18T05:53:05;9.40;;;3.40;;
15077;SDS011;7638;49.760;8.646;2023-09-18T05:55:37;7.70;;;2.50;;
15077;SDS011;7638;49.760;8.646;2023-09-18T05:58:06;9.70;;;2.70;;
15077;SDS011;7638;49.760;8.646;2023-09-18T06:00:33;5.97;;;2.10;;
15077;SDS011;7638;49.760;8.646;2023-09-18T06:03:02;6.20;;;1.73;;
15077;SDS011;7638;49.760;8.646;2023-09-18T06:05:31;8.80;;;2.13;;
15077;SDS011;7638;49.760;8.646;2023-09-18T06:07:59;12.30;;;1.80;;
15077;SDS011;7638;49.760;8.646;2023-09-18T06:10:25;7.60;;;1.93;;
15077;SDS011;7638;49.760;8.646;2023-09-18T06:13:00;6.97;;;1.77;;
15077;SDS011;7638;49.760;8.646;2023-09-18T06:15:29;6.33;;;2.00;;
15077;SDS011;7638;49.760;8.646;2023-09-18T06:17:55;8.40;;;2.60;;
15077;SDS011;7638;49.760;8.646;2023-09-18T06:20:21;9.30;;;2.90;;
15077;SDS011;7638;49.760;8.646;2023-09-18T06:22:47;8.73;;;2.67;;
15077;SDS011;7638;49.760;8.646;2023-09-18T06:25:13;6.40;;;2.57;;
15077;SDS011;7638;49.760;8.646;2023-09-18T06:27:39;4.43;;;2.00;;
15077;SDS011;7638;49.760;8.646;2023-09-18T06:30:06;10.47;;;2.10;;
15077;SDS011;7638;49.760;8.646;2023-09-18T06:32:32;7.23;;;3.20;;
15077;SDS011;7638;49.760;8.646;2023-09-18T06:34:58;12.73;;;2.23;;
15077;SDS011;7638;49.760;8.646;2023-09-18T06:37:24;3.57;;;1.80;;
15077;SDS011;7638;49.760;8.646;2023-09-18T06:39:50;7.77;;;2.53;;
15077;SDS011;7638;49.760;8.646;2023-09-18T06:42:17;7.13;;;2.50;;
15077;SDS011;7638;49.760;8.646;2023-09-18T06:44:43;14.00;;;3.40;;
15077;SDS011;7638;49.760;8.646;2023-09-18T06:47:09;4.07;;;2.10;;
15077;SDS011;7638;49.760;8.646;2023-09-18T06:49:35;7.13;;;2.23;;
15077;SDS011;7638;49.760;8.646;2023-09-18T06:52:01;10.00;;;2.00;;
15077;SDS011;7638;49.760;8.646;2023-09-18T06:54:27;8.17;;;2.43;;
15077;SDS011;7638;49.760;8.646;2023-09-18T06:56:53;4.03;;;1.83;;
15077;SDS011;7638;49.760;8.646;2023-09-18T06:59:19;10.53;;;2.37;;
15077;SDS011;7638;49.760;8.646;2023-09-18T07:01:45;4.80;;;2.37;;
15077;SDS011;7638;49.760;8.646;2023-09-18T07:04:11;7.63;;;1.80;;
15077;SDS011;7638;49.760;8.646;2023-09-18T07:06:37;6.30;;;2.63;;
15077;SDS011;7638;49.760;8.646;2023-09-18T07:09:03;6.43;;;1.40;;
15077;SDS011;7638;49.760;8.646;2023-09-18T07:11:31;7.27;;;2.00;;
15077;SDS011;7638;49.760;8.646;2023-09-18T07:13:57;7.83;;;2.17;;
15077;SDS011;7638;49.760;8.646;2023-09-18T07:16:24;10.10;;;2.27;;
15077;SDS011;7638;49.760;8.646;2023-09-18T07:18:50;6.00;;;2.40;;
15077;SDS011;7638;49.760;8.646;2023-09-18T07:21:16;8.63;;;2.47;;
15077;SDS011;7638;49.760;8.646;2023-09-18T07:23:42;9.43;;;2.00;;
15077;SDS011;7638;49.760;8.646;2023-09-18T07:26:10;7.33;;;1.67;;
15077;SDS011;7638;49.760;8.646;2023-09-18T07:28:36;7.07;;;2.73;;
15077;SDS011;7638;49.760;8.646;2023-09-18T07:31:06;9.23;;;1.80;;
15077;SDS011;7638;49.760;8.646;2023-09-18T07:33:33;5.97;;;1.70;;
15077;SDS011;7638;49.760;8.646;2023-09-18T07:35:59;8.00;;;2.33;;
15077;SDS011;7638;49.760;8.646;2023-09-18T07:38:26;8.33;;;2.20;;
15077;SDS011;7638;49.760;8.646;2023-09-18T07:40:52;4.07;;;1.63;;
15077;SDS011;7638;49.760;8.646;2023-09-18T07:43:18;8.47;;;1.97;;
15077;SDS011;7638;49.760;8.646;2023-09-18T07:45:45;4.97;;;1.90;;
15077;SDS011;7638;49.760;8.646;2023-09-18T07:48:11;7.83;;;1.87;;
15077;SDS011;7638;49.760;8.646;2023-09-18T07:50:36;5.47;;;2.50;;
15077;SDS011;7638;49.760;8.646;2023-09-18T07:53:03;4.73;;;1.33;;
15077;SDS011;7638;49.760;8.646;2023-09-18T07:55:29;3.33;;;1.57;;
15077;SDS011;7638;49.760;8.646;2023-09-18T07:57:55;2.30;;;1.23;;
15077;SDS011;7638;49.760;8.646;2023-09-18T08:00:22;7.30;;;1.93;;
15077;SDS011;7638;49.760;8.646;2023-09-18T08:02:56;5.87;;;1.50;;
15077;SDS011;7638;49.760;8.646;2023-09-18T08:05:25;4.30;;;1.43;;
15077;SDS011;7638;49.760;8.646;2023-09-18T08:07:53;3.43;;;1.60;;
15077;SDS011;7638;49.760;8.646;2023-09-18T08:10:22;3.60;;;1.40;;
15077;SDS011;7638;49.760;8.646;2023-09-18T08:12:48;3.80;;;1.53;;
15077;SDS011;7638;49.760;8.646;2023-09-18T08:15:16;6.20;;;1.37;;
15077;SDS011;7638;49.760;8.646;2023-09-18T08:17:42;6.50;;;1.40;;
15077;SDS011;7638;49.760;8.646;2023-09-18T08:20:08;4.00;;;1.77;;
15077;SDS011;7638;49.760;8.646;2023-09-18T08:22:38;2.77;;;1.50;;
15077;SDS011;7638;49.760;8.646;2023-09-18T08:25:06;4.17;;;1.40;;
15077;SDS011;7638;49.760;8.646;2023-09-18T08:27:36;2.70;;;1.43;;
15077;SDS011;7638;49.760;8.646;2023-09-18T08:30:05;9.93;;;1.73;;
15077;SDS011;7638;49.760;8.646;2023-09-18T08:32:31;3.97;;;1.40;;
15077;SDS011;7638;49.760;8.646;2023-09-18T08:34:59;5.13;;;1.33;;
15077;SDS011;7638;49.760;8.646;2023-09-18T08:37:27;5.50;;;1.33;;
15077;SDS011;7638;49.760;8.646;2023-09-18T08:39:53;5.50;;;1.43;;
15077;SDS011;7638;49.760;8.646;2023-09-18T08:42:19;6.53;;;1.40;;
15077;SDS011;7638;49.760;8.646;2023-09-18T08:44:46;3.80;;;1.30;;
15077;SDS011;7638;49.760;8.646;2023-09-18T08:47:14;3.90;;;1.10;;
15077;SDS011;7638;49.760;8.646;2023-09-18T08:49:41;3.00;;;1.20;;
15077;SDS011;7638;49.760;8.646;2023-09-18T08:52:07;2.47;;;1.30;;
15077;SDS011;7638;49.760;8.646;2023-09-18T08:54:34;6.00;;;1.50;;
15077;SDS011;7638;49.760;8.646;2023-09-18T08:57:00;5.73;;;1.27;;
15077;SDS011;7638;49.760;8.646;2023-09-18T08:59:26;2.67;;;1.40;;
15077;SDS011;7638;49.760;8.646;2023-09-18T09:01:54;3.03;;;1.30;;
15077;SDS011;7638;49.760;8.646;2023-09-18T09:04:19;5.87;;;1.47;;
15077;SDS011;7638;49.760;8.646;2023-09-18T09:06:45;7.17;;;1.77;;
15077;SDS011;7638;49.760;8.646;2023-09-18T09:09:11;3.60;;;1.33;;
15077;SDS011;7638;49.760;8.646;2023-09-18T09:11:38;4.10;;;1.30;;
15077;SDS011;7638;49.760;8.646;2023-09-18T09:14:14;2.83;;;1.43;;
15077;SDS011;7638;49.760;8.646;2023-09-18T09:16:49;8.33;;;2.10;;
15077;SDS011;7638;49.760;8.646;2023-09-18T09:19:16;8.00;;;1.67;;
15077;SDS011;7638;49.760;8.646;2023-09-18T09:21:42;5.57;;;1.30;;
15077;SDS011;7638;49.760;8.646;2023-09-18T09:24:09;2.87;;;1.50;;
15077;SDS011;7638;49.760;8.646;2023-09-18T09:26:39;5.53;;;1.20;;
15077;SDS011;7638;49.760;8.646;2023-09-18T09:29:19;6.80;;;2.17;;
15077;SDS011;7638;49.760;8.646;2023-09-18T09:31:46;7.93;;;1.50;;
15077;SDS011;7638;49.760;8.646;2023-09-18T09:34:16;4.63;;;1.30;;
15077;SDS011;7638;49.760;8.646;2023-09-18T09:36:53;2.23;;;1.30;;
15077;SDS011;7638;49.760;8.646;2023-09-18T09:39:19;5.73;;;1.57;;
15077;SDS011;7638;49.760;8.646;2023-09-18T09:41:48;8.20;;;1.77;;
15077;SDS011;7638;49.760;8.646;2023-09-18T09:44:15;3.77;;;1.13;;
15077;SDS011;7638;49.760;8.646;2023-09-18T09:46:45;8.87;;;1.50;;
15077;SDS011;7638;49.760;8.646;2023-09-18T09:49:11;3.40;;;1.20;;
15077;SDS011;7638;49.760;8.646;2023-09-18T09:51:37;4.17;;;1.40;;
15077;SDS011;7638;49.760;8.646;2023-09-18T09:54:03;3.50;;;1.50;;
15077;SDS011;7638;49.760;8.646;2023-09-18T09:57:02;7.67;;;1.30;;
15077;SDS011;7638;49.760;8.646;2023-09-18T09:59:21;6.40;;;1.83;;
15077;SDS011;7638;49.760;8.646;2023-09-18T10:01:49;2.40;;;1.23;;
15077;SDS011;7638;49.760;8.646;2023-09-18T10:04:16;3.97;;;1.50;;
15077;SDS011;7638;49.760;8.646;2023-09-18T10:06:43;7.10;;;1.47;;
15077;SDS011;7638;49.760;8.646;2023-09-18T10:09:10;5.40;;;1.43;;
15077;SDS011;7638;49.760;8.646;2023-09-18T10:11:40;5.57;;;1.30;;
15077;SDS011;7638;49.760;8.646;2023-09-18T10:14:10;5.83;;;1.40;;
15077;SDS011;7638;49.760;8.646;2023-09-18T10:16:39;2.60;;;1.43;;
15077;SDS011;7638;49.760;8.646;2023-09-18T10:19:09;2.43;;;1.10;;
15077;SDS011;7638;49.760;8.646;2023-09-18T10:21:49;2.87;;;1.10;;
15077;SDS011;7638;49.760;8.646;2023-09-18T10:24:17;4.07;;;1.40;;
15077;SDS011;7638;49.760;8.646;2023-09-18T10:26:50;3.63;;;1.50;;
15077;SDS011;7638;49.760;8.646;2023-09-18T10:29:17;2.30;;;1.40;;
15077;SDS011;7638;49.760;8.646;2023-09-18T10:31:45;2.70;;;1.27;;
15077;SDS011;7638;49.760;8.646;2023-09-18T10:34:12;3.80;;;1.53;;
15077;SDS011;7638;49.760;8.646;2023-09-18T10:36:40;3.47;;;1.70;;
15077;SDS011;7638;49.760;8.646;2023-09-18T10:39:08;3.43;;;1.57;;
15077;SDS011;7638;49.760;8.646;2023-09-18T10:41:37;3.87;;;1.43;;
15077;SDS011;7638;49.760;8.646;2023-09-18T10:44:03;3.83;;;1.40;;
15077;SDS011;7638;49.760;8.646;2023-09-18T10:46:29;4.13;;;1.10;;
15077;SDS011;7638;49.760;8.646;2023-09-18T10:48:56;6.50;;;1.53;;
15077;SDS011;7638;49.760;8.646;2023-09-18T10:51:23;2.90;;;1.50;;
15077;SDS011;7638;49.760;8.646;2023-09-18T10:53:50;4.00;;;1.60;;
15077;SDS011;7638;49.760;8.646;2023-09-18T10:56:19;3.33;;;1.40;;
15077;SDS011;7638;49.760;8.646;2023-09-18T10:58:46;4.20;;;1.40;;
15077;SDS011;7638;49.760;8.646;2023-09-18T11:01:12;2.73;;;1.47;;
15077;SDS011;7638;49.760;8.646;2023-09-18T11:03:38;4.00;;;1.20;;
15077;SDS011;7638;49.760;8.646;2023-09-18T11:06:09;1.30;;;1.20;;
15077;SDS011;7638;49.760;8.646;2023-09-18T11:08:45;4.07;;;2.03;;
15077;SDS011;7638;49.760;8.646;2023-09-18T11:11:12;3.00;;;1.50;;
15077;SDS011;7638;49.760;8.646;2023-09-18T11:13:47;2.00;;;1.10;;
15077;SDS011;7638;49.760;8.646;2023-09-18T11:18:45;3.53;;;1.23;;
15077;SDS011;7638;49.760;8.646;2023-09-18T11:21:12;1.97;;;1.13;;
15077;SDS011;7638;49.760;8.646;2023-09-18T11:23:38;2.47;;;1.23;;
15077;SDS011;7638;49.760;8.646;2023-09-18T11:26:08;2.53;;;1.20;;
15077;SDS011;7638;49.760;8.646;2023-09-18T11:28:35;2.27;;;1.20;;
15077;SDS011;7638;49.760;8.646;2023-09-18T11:31:05;6.00;;;1.77;;
15077;SDS011;7638;49.760;8.646;2023-09-18T11:33:38;5.63;;;1.67;;
15077;SDS011;7638;49.760;8.646;2023-09-18T11:38:31;5.30;;;1.60;;
15077;SDS011;7638;49.760;8.646;2023-09-18T11:40:59;5.13;;;1.23;;
15077;SDS011;7638;49.760;8.646;2023-09-18T11:43:28;7.03;;;1.63;;
15077;SDS011;7638;49.760;8.646;2023-09-18T11:45:55;5.03;;;2.07;;
15077;SDS011;7638;49.760;8.646;2023-09-18T11:48:22;4.83;;;1.70;;
15077;SDS011;7638;49.760;8.646;2023-09-18T11:50:54;5.43;;;1.70;;
15077;SDS011;7638;49.760;8.646;2023-09-18T11:53:20;6.73;;;1.63;;
15077;SDS011;7638;49.760;8.646;2023-09-18T11:55:47;3.67;;;1.70;;
15077;SDS011;7638;49.760;8.646;2023-09-18T11:58:13;3.03;;;1.30;;
15077;SDS011;7638;49.760;8.646;2023-09-18T12:00:39;5.67;;;1.80;;
15077;SDS011;7638;49.760;8.646;2023-09-18T12:03:22;5.13;;;1.73;;
15077;SDS011;7638;49.760;8.646;2023-09-18T12:05:51;5.17;;;1.53;;
15077;SDS011;7638;49.760;8.646;2023-09-18T12:08:18;10.37;;;1.33;;
15077;SDS011;7638;49.760;8.646;2023-09-18T12:10:44;2.90;;;1.47;;
15077;SDS011;7638;49.760;8.646;2023-09-18T12:13:10;5.50;;;1.37;;
15077;SDS011;7638;49.760;8.646;2023-09-18T12:15:37;3.47;;;2.33;;
15077;SDS011;7638;49.760;8.646;2023-09-18T12:18:05;4.67;;;1.53;;
15077;SDS011;7638;49.760;8.646;2023-09-18T12:20:31;5.03;;;1.50;;
15077;SDS011;7638;49.760;8.646;2023-09-18T12:22:59;5.70;;;1.70;;
15077;SDS011;7638;49.760;8.646;2023-09-18T12:25:27;4.53;;;1.23;;
15077;SDS011;7638;49.760;8.646;2023-09-18T12:27:53;9.93;;;1.77;;
15077;SDS011;7638;49.760;8.646;2023-09-18T12:30:21;2.80;;;1.20;;
15077;SDS011;7638;49.760;8.646;2023-09-18T12:32:47;5.47;;;1.47;;
15077;SDS011;7638;49.760;8.646;2023-09-18T12:35:14;4.83;;;1.93;;
15077;SDS011;7638;49.760;8.646;2023-09-18T12:37:40;3.07;;;1.40;;
15077;SDS011;7638;49.760;8.646;2023-09-18T12:40:06;3.57;;;1.47;;
15077;SDS011;7638;49.760;8.646;2023-09-18T12:42:39;4.80;;;1.50;;
15077;SDS011;7638;49.760;8.646;2023-09-18T12:45:06;2.97;;;1.40;;
15077;SDS011;7638;49.760;8.646;2023-09-18T12:47:32;6.63;;;1.40;;
15077;SDS011;7638;49.760;8.646;2023-09-18T12:50:05;6.50;;;1.80;;
15077;SDS011;7638;49.760;8.646;2023-09-18T12:52:36;6.47;;;1.93;;
15077;SDS011;7638;49.760;8.646;2023-09-18T12:55:02;2.97;;;1.50;;
15077;SDS011;7638;49.760;8.646;2023-09-18T12:57:31;4.63;;;1.23;;
15077;SDS011;7638;49.760;8.646;2023-09-18T12:59:57;4.80;;;1.90;;
15077;SDS011;7638;49.760;8.646;2023-09-18T13:02:23;3.90;;;1.57;;
15077;SDS011;7638;49.760;8.646;2023-09-18T13:04:56;5.57;;;1.83;;
15077;SDS011;7638;49.760;8.646;2023-09-18T13:07:23;2.97;;;1.33;;
15077;SDS011;7638;49.760;8.646;2023-09-18T13:09:58;2.00;;;1.33;;
15077;SDS011;7638;49.760;8.646;2023-09-18T13:12:25;5.43;;;2.33;;
15077;SDS011;7638;49.760;8.646;2023-09-18T13:15:01;2.63;;;1.33;;
15077;SDS011;7638;49.760;8.646;2023-09-18T13:17:36;4.70;;;1.63;;
15077;SDS011;7638;49.760;8.646;2023-09-18T13:20:06;5.80;;;1.40;;
15077;SDS011;7638;49.760;8.646;2023-09-18T13:22:32;6.27;;;1.50;;
15077;SDS011;7638;49.760;8.646;2023-09-18T13:24:58;7.07;;;1.60;;
15077;SDS011;7638;49.760;8.646;2023-09-18T13:27:24;5.40;;;1.50;;
15077;SDS011;7638;49.760;8.646;2023-09-18T13:29:51;2.10;;;1.20;;
15077;SDS011;7638;49.760;8.646;2023-09-18T13:32:22;7.23;;;1.93;;
15077;SDS011;7638;49.760;8.646;2023-09-18T13:34:48;6.90;;;1.87;;
15077;SDS011;7638;49.760;8.646;2023-09-18T13:37:14;5.53;;;1.33;;
15077;SDS011;7638;49.760;8.646;2023-09-18T13:39:42;3.63;;;2.03;;
15077;SDS011;7638;49.760;8.646;2023-09-18T13:42:08;2.10;;;1.40;;
15077;SDS011;7638;49.760;8.646;2023-09-18T13:44:34;4.53;;;1.63;;
15077;SDS011;7638;49.760;8.646;2023-09-18T13:47:02;4.63;;;1.20;;
15077;SDS011;7638;49.760;8.646;2023-09-18T13:49:28;8.83;;;2.90;;
15077;SDS011;7638;49.760;8.646;2023-09-18T13:51:54;9.87;;;2.17;;
15077;SDS011;7638;49.760;8.646;2023-09-18T13:54:21;3.33;;;1.17;;
15077;SDS011;7638;49.760;8.646;2023-09-18T13:56:47;4.33;;;1.70;;
15077;SDS011;7638;49.760;8.646;2023-09-18T13:59:13;2.30;;;1.73;;
15077;SDS011;7638;49.760;8.646;2023-09-18T14:01:39;1.70;;;1.20;;
15077;SDS011;7638;49.760;8.646;2023-09-18T14:04:05;2.90;;;1.07;;
15077;SDS011;7638;49.760;8.646;2023-09-18T14:06:32;3.17;;;1.50;;
15077;SDS011;7638;49.760;8.646;2023-09-18T14:08:58;2.03;;;1.30;;
15077;SDS011;7638;49.760;8.646;2023-09-18T14:11:24;5.97;;;1.20;;
15077;SDS011;7638;49.760;8.646;2023-09-18T14:13:50;4.00;;;1.30;;
15077;SDS011;7638;49.760;8.646;2023-09-18T14:16:16;2.70;;;1.30;;
15077;SDS011;7638;49.760;8.646;2023-09-18T14:18:42;3.13;;;1.60;;
15077;SDS011;7638;49.760;8.646;2023-09-18T14:21:08;1.53;;;1.10;;
15077;SDS011;7638;49.760;8.646;2023-09-18T14:23:34;7.37;;;1.30;;
15077;SDS011;7638;49.760;8.646;2023-09-18T14:26:01;5.17;;;1.37;;
15077;SDS011;7638;49.760;8.646;2023-09-18T14:28:27;2.97;;;1.73;;
15077;SDS011;7638;49.760;8.646;2023-09-18T14:30:53;6.40;;;2.37;;
15077;SDS011;7638;49.760;8.646;2023-09-18T14:33:22;2.33;;;1.20;;
15077;SDS011;7638;49.760;8.646;2023-09-18T14:35:48;4.30;;;1.97;;
15077;SDS011;7638;49.760;8.646;2023-09-18T14:38:14;5.17;;;1.40;;
15077;SDS011;7638;49.760;8.646;2023-09-18T14:40:41;2.23;;;1.50;;
15077;SDS011;7638;49.760;8.646;2023-09-18T14:43:07;3.77;;;1.43;;
15077;SDS011;7638;49.760;8.646;2023-09-18T14:45:33;3.00;;;1.20;;
15077;SDS011;7638;49.760;8.646;2023-09-18T14:48:00;2.50;;;1.23;;
15077;SDS011;7638;49.760;8.646;2023-09-18T14:50:26;7.03;;;1.50;;
15077;SDS011;7638;49.760;8.646;2023-09-18T14:52:52;5.80;;;1.43;;
15077;SDS011;7638;49.760;8.646;2023-09-18T14:55:18;3.80;;;1.50;;
15077;SDS011;7638;49.760;8.646;2023-09-18T14:57:44;5.70;;;1.40;;
15077;SDS011;7638;49.760;8.646;2023-09-18T15:00:10;8.10;;;1.60;;
15077;SDS011;7638;49.760;8.646;2023-09-18T15:02:37;3.27;;;1.50;;
15077;SDS011;7638;49.760;8.646;2023-09-18T15:05:03;1.17;;;1.00;;
15077;SDS011;7638;49.760;8.646;2023-09-18T15:07:33;2.90;;;1.20;;
15077;SDS011;7638;49.760;8.646;2023-09-18T15:09:59;2.10;;;1.33;;